Time;durP1;ratioP1;P1;durP2;ratioP2;P2;SDS_P1;SDS_P2;PMS_P1;PMS_P2;Temp;Humidity;BMP_temperature;BMP_pressure;BME280_temperature;BME280_humidity;BME280_pressure;Samples;Min_cycle;Max_cycle;Signal;HPM_P1;HPM_P2
2023/12/07 00:01:08;;;;;;;18.50;12.70;;;;;;;-3.61;66.95;101003.91;105867;1258;60538;-77
2023/12/07 00:03:35;;;;;;;19.60;12.90;;;;;;;-3.61;66.86;101005.13;105639;1260;65192;-77
2023/12/07 00:06:02;;;;;;;18.00;12.60;;;;;;;-3.63;66.93;101010.14;105870;1260;60566;-77
2023/12/07 00:08:30;;;;;;;19.70;12.70;;;;;;;-3.65;66.88;101013.77;105625;1257;64015;-77
2023/12/07 00:10:56;;;;;;;19.20;12.70;;;;;;;-3.66;66.88;101014.30;105372;1254;60665;-77
2023/12/07 00:13:23;;;;;;;19.30;12.20;;;;;;;-3.67;66.83;101019.63;105754;1259;60588;-76
2023/12/07 00:15:50;;;;;;;17.50;12.10;;;;;;;-3.68;66.97;101018.79;105761;1255;65065;-78
2023/12/07 00:18:17;;;;;;;17.80;12.70;;;;;;;-3.69;67.00;101019.66;105759;1254;60363;-76
2023/12/07 00:20:44;;;;;;;21.00;12.80;;;;;;;-3.70;66.97;101023.30;105509;1258;64040;-76
2023/12/07 00:23:11;;;;;;;18.40;12.40;;;;;;;-3.71;67.01;101023.13;105443;1254;60456;-78
2023/12/07 00:25:38;;;;;;;18.40;12.20;;;;;;;-3.72;67.05;101023.48;105755;1258;60483;-77
2023/12/07 00:28:05;;;;;;;18.30;12.70;;;;;;;-3.73;67.04;101024.52;105763;1258;65079;-76
2023/12/07 00:30:33;;;;;;;17.50;12.10;;;;;;;-3.75;67.12;101024.71;105503;1257;60474;-79
2023/12/07 00:33:00;;;;;;;20.30;12.60;;;;;;;-3.75;67.02;101022.48;105482;1264;64485;-75
2023/12/07 00:35:28;;;;;;;17.80;11.60;;;;;;;-3.76;67.10;101020.79;105857;1257;60511;-77
2023/12/07 00:37:56;;;;;;;18.70;12.40;;;;;;;-3.78;67.08;101023.36;105885;1254;60559;-76
2023/12/07 00:40:23;;;;;;;18.00;12.10;;;;;;;-3.78;67.12;101028.52;105771;1261;65298;-77
2023/12/07 00:42:50;;;;;;;18.30;12.10;;;;;;;-3.79;67.12;101030.59;105785;1257;60486;-76
2023/12/07 00:45:17;;;;;;;16.00;10.80;;;;;;;-3.79;67.07;101029.90;105802;1257;63925;-75
2023/12/07 00:47:44;;;;;;;17.80;12.30;;;;;;;-3.81;67.01;101027.87;105798;1254;60690;-75
2023/12/07 00:50:14;;;;;;;20.10;12.30;;;;;;;-3.84;67.04;101028.09;105890;1260;60476;-75
2023/12/07 00:52:41;;;;;;;17.10;11.90;;;;;;;-3.85;67.10;101029.30;105858;1257;65129;-76
2023/12/07 00:55:08;;;;;;;16.30;11.30;;;;;;;-3.86;67.03;101027.41;105854;1257;60493;-77
2023/12/07 00:57:39;;;;;;;15.80;10.60;;;;;;;-3.88;67.11;101024.15;105827;1257;62581;-76
2023/12/07 01:00:07;;;;;;;16.90;11.60;;;;;;;-3.89;67.12;101021.25;105696;1261;60571;-76
2023/12/07 01:02:35;;;;;;;17.10;11.50;;;;;;;-3.89;67.19;101020.91;105727;1254;60475;-76
2023/12/07 01:05:02;;;;;;;16.80;11.70;;;;;;;-3.90;67.14;101021.09;105752;1258;64956;-75
2023/12/07 01:07:29;;;;;;;16.00;10.50;;;;;;;-3.91;67.09;101021.27;105742;1257;60637;-75
2023/12/07 01:09:56;;;;;;;16.80;11.90;;;;;;;-3.91;67.09;101020.24;105778;1257;64061;-76
2023/12/07 01:12:23;;;;;;;14.90;10.50;;;;;;;-3.93;67.06;101022.15;105820;1255;60537;-76
2023/12/07 01:14:51;;;;;;;15.70;11.60;;;;;;;-3.95;67.10;101018.91;106484;1255;60371;-75
2023/12/07 01:17:18;;;;;;;16.10;11.40;;;;;;;-3.97;67.04;101019.42;106081;1250;65112;-78
2023/12/07 01:19:44;;;;;;;15.60;11.50;;;;;;;-3.99;67.08;101022.71;106247;1251;60459;-76
2023/12/07 01:22:11;;;;;;;14.00;10.00;;;;;;;-4.00;67.13;101020.50;106160;1249;64048;-76
2023/12/07 01:24:38;;;;;;;14.40;10.10;;;;;;;-4.01;67.21;101020.34;106141;1251;60565;-76
2023/12/07 01:27:05;;;;;;;16.60;11.60;;;;;;;-4.01;67.24;101015.70;106523;1251;60467;-76
2023/12/07 01:29:32;;;;;;;14.60;10.80;;;;;;;-4.02;67.31;101016.57;106241;1253;65159;-76
2023/12/07 01:31:59;;;;;;;17.90;11.70;;;;;;;-4.04;67.28;101014.18;106077;1251;60368;-75
2023/12/07 01:34:25;;;;;;;16.80;11.20;;;;;;;-4.06;67.23;101011.77;106185;1251;63818;-75
2023/12/07 01:36:52;;;;;;;17.30;11.20;;;;;;;-4.06;67.27;101012.63;106191;1249;60429;-75
2023/12/07 01:39:19;;;;;;;16.00;11.30;;;;;;;-4.07;67.29;101006.95;106248;1253;60434;-74
2023/12/07 01:41:46;;;;;;;15.90;11.00;;;;;;;-4.08;67.36;101008.17;106182;1254;65285;-76
2023/12/07 01:44:13;;;;;;;16.20;11.10;;;;;;;-4.08;67.32;101009.89;106166;1250;60502;-75
2023/12/07 01:46:40;;;;;;;15.40;10.40;;;;;;;-4.09;67.29;101006.64;106257;1251;63680;-77
2023/12/07 01:49:06;;;;;;;15.50;11.40;;;;;;;-4.10;67.29;101005.80;106146;1256;60537;-75
2023/12/07 01:51:34;;;;;;;16.20;11.30;;;;;;;-4.12;67.26;101003.58;106260;1250;60469;-75
2023/12/07 01:54:01;;;;;;;16.90;11.70;;;;;;;-4.13;67.27;101002.39;106033;1255;65064;-75
2023/12/07 01:56:29;;;;;;;15.10;10.60;;;;;;;-4.14;67.33;101002.75;106139;1250;60472;-76
2023/12/07 01:58:57;;;;;;;20.60;11.60;;;;;;;-4.16;67.37;100998.80;106206;1257;63979;-76
2023/12/07 02:01:23;;;;;;;17.10;11.10;;;;;;;-4.18;67.25;100993.14;105923;1250;60531;-76
2023/12/07 02:03:50;;;;;;;19.60;11.10;;;;;;;-4.19;67.30;100989.20;106202;1253;60488;-76
2023/12/07 02:06:17;;;;;;;18.60;11.00;;;;;;;-4.22;67.25;100990.27;106351;1250;65023;-74
2023/12/07 02:08:44;;;;;;;18.90;11.20;;;;;;;-4.25;67.27;100987.88;106096;1250;60527;-76
2023/12/07 02:11:11;;;;;;;15.90;10.70;;;;;;;-4.29;67.30;100986.36;105960;1252;71727;-76
2023/12/07 02:13:38;;;;;;;17.80;10.80;;;;;;;-4.31;67.24;100986.73;105851;1251;60460;-76
2023/12/07 02:16:27;;;;;;;14.30;10.50;;;;;;;-4.33;67.26;100988.13;105948;1256;60543;-75
2023/12/07 02:19:09;;;;;;;15.60;10.70;;;;;;;-4.35;67.26;100985.20;106186;1253;65373;-77
2023/12/07 02:22:14;;;;;;;17.40;11.00;;;;;;;-4.37;67.37;100980.94;105930;1251;61240;-76
2023/12/07 02:24:46;;;;;;;15.20;10.50;;;;;;;-4.39;67.36;100986.80;106159;1256;62566;-76
2023/12/07 02:27:13;;;;;;;17.50;11.00;;;;;;;-4.41;67.35;100988.02;106129;1251;60560;-74
2023/12/07 02:29:39;;;;;;;14.70;10.10;;;;;;;-4.41;67.44;100983.20;105896;1251;60473;-77
2023/12/07 02:32:06;;;;;;;14.20;10.20;;;;;;;-4.41;67.46;100979.25;106187;1253;64984;-76
2023/12/07 02:34:33;;;;;;;17.30;11.10;;;;;;;-4.43;67.37;100981.34;106115;1253;60447;-76
2023/12/07 02:36:59;;;;;;;17.90;11.00;;;;;;;-4.44;67.45;100981.00;106079;1250;62564;-75
2023/12/07 02:39:26;;;;;;;17.00;11.20;;;;;;;-4.45;67.50;100981.84;106093;1251;60472;-75
2023/12/07 02:41:53;;;;;;;15.00;10.90;;;;;;;-4.46;67.49;100985.82;105957;1250;60597;-76
2023/12/07 02:44:20;;;;;;;15.00;10.70;;;;;;;-4.47;67.52;100984.11;106270;1250;64094;-74
2023/12/07 02:46:47;;;;;;;15.60;11.00;;;;;;;-4.46;67.65;100978.08;105888;1250;67146;-76
2023/12/07 02:49:14;;;;;;;15.90;11.30;;;;;;;-4.46;67.56;100977.22;106142;1250;64096;-76
2023/12/07 02:51:41;;;;;;;17.20;11.90;;;;;;;-4.47;67.52;100978.95;106220;1253;60555;-75
2023/12/07 02:54:07;;;;;;;19.20;10.80;;;;;;;-4.48;67.59;100977.41;106248;1250;60428;-74
2023/12/07 02:56:34;;;;;;;16.50;10.40;;;;;;;-4.49;67.58;100979.32;106207;1249;65185;-76
2023/12/07 02:59:01;;;;;;;17.40;11.10;;;;;;;-4.49;67.69;100977.27;106193;1256;60373;-77
2023/12/07 03:01:28;;;;;;;15.60;10.40;;;;;;;-4.47;67.74;100976.03;106224;1251;63980;-75
2023/12/07 03:03:55;;;;;;;15.50;10.40;;;;;;;-4.44;67.79;100974.64;106311;1250;60456;-76
2023/12/07 03:06:22;;;;;;;15.20;11.10;;;;;;;-4.42;67.82;100974.63;106272;1253;60448;-75
2023/12/07 03:08:49;;;;;;;21.10;11.10;;;;;;;-4.38;67.85;100975.95;106158;1250;65705;-75
2023/12/07 03:11:15;;;;;;;16.50;10.90;;;;;;;-4.36;67.96;100976.45;106107;1251;60354;-76
2023/12/07 03:13:42;;;;;;;17.80;10.90;;;;;;;-4.34;68.06;100975.92;106186;1251;63928;-76
2023/12/07 03:16:09;;;;;;;17.70;11.80;;;;;;;-4.29;68.18;100980.52;106214;1250;61211;-75
2023/12/07 03:18:37;;;;;;;17.40;10.80;;;;;;;-4.24;68.24;100986.15;106312;1254;61241;-76
2023/12/07 03:21:04;;;;;;;21.50;11.60;;;;;;;-4.19;68.21;100984.55;106047;1253;66087;-75
2023/12/07 03:23:31;;;;;;;18.20;11.60;;;;;;;-4.14;68.28;100984.00;105821;1251;61304;-76
2023/12/07 03:25:57;;;;;;;17.30;10.80;;;;;;;-4.10;68.36;100978.79;106037;1253;62457;-76
2023/12/07 03:28:24;;;;;;;16.00;10.80;;;;;;;-4.05;68.36;100979.61;106016;1250;61216;-75
2023/12/07 03:30:51;;;;;;;15.80;11.00;;;;;;;-4.01;68.39;100980.94;106087;1251;61263;-76
2023/12/07 03:33:18;;;;;;;20.70;11.80;;;;;;;-3.97;68.46;100981.23;106263;1251;66478;-76
2023/12/07 03:35:45;;;;;;;17.10;12.60;;;;;;;-3.95;68.49;100977.10;106196;1251;61345;-76
2023/12/07 03:38:12;;;;;;;21.60;13.30;;;;;;;-3.90;68.49;100981.35;105820;1249;62865;-75
2023/12/07 03:40:39;;;;;;;18.50;12.20;;;;;;;-3.88;68.59;100985.44;106114;1254;61372;-75
2023/12/07 03:43:06;;;;;;;23.20;12.00;;;;;;;-3.84;68.57;100984.56;106038;1251;61294;-75
2023/12/07 03:45:33;;;;;;;18.50;11.60;;;;;;;-3.81;68.56;100988.14;106104;1254;66033;-75
2023/12/07 03:48:00;;;;;;;21.20;11.60;;;;;;;-3.78;68.62;100987.23;106132;1254;61250;-75
2023/12/07 03:50:27;;;;;;;18.80;11.90;;;;;;;-3.76;68.58;100986.54;105954;1255;64029;-76
2023/12/07 03:52:54;;;;;;;15.80;10.80;;;;;;;-3.73;68.56;100983.75;106046;1249;61251;-75
2023/12/07 03:55:21;;;;;;;18.70;10.70;;;;;;;-3.73;68.61;100979.96;106119;1252;61260;-76
2023/12/07 03:57:48;;;;;;;18.30;12.10;;;;;;;-3.71;68.62;100981.83;106104;1255;65825;-75
2023/12/07 04:00:15;;;;;;;17.50;11.60;;;;;;;-3.69;68.59;100982.50;106122;1253;61350;-76
2023/12/07 04:02:42;;;;;;;17.40;11.50;;;;;;;-3.69;68.64;100983.52;105902;1251;64130;-75
2023/12/07 04:05:08;;;;;;;16.00;11.50;;;;;;;-3.67;68.71;100983.84;105724;1251;61346;-75
2023/12/07 04:07:35;;;;;;;19.50;11.70;;;;;;;-3.65;68.64;100986.42;105759;1250;61358;-74
2023/12/07 04:10:05;;;;;;;18.50;12.40;;;;;;;-3.63;68.64;100987.23;105950;1254;66045;-76
2023/12/07 04:12:32;;;;;;;20.50;11.80;;;;;;;-3.60;68.62;100989.61;105835;1251;61451;-76
2023/12/07 04:15:00;;;;;;;19.60;12.60;;;;;;;-3.57;68.67;100990.80;105859;1253;63852;-76
2023/12/07 04:17:27;;;;;;;18.60;11.80;;;;;;;-3.55;68.69;100989.91;105875;1256;61414;-76
2023/12/07 04:19:53;;;;;;;17.60;11.70;;;;;;;-3.57;68.91;100988.02;106027;1253;61240;-76
2023/12/07 04:22:20;;;;;;;18.60;11.40;;;;;;;-3.59;68.93;100985.80;105991;1254;66052;-75
2023/12/07 04:24:47;;;;;;;18.60;11.70;;;;;;;-3.59;68.85;100981.52;105937;1256;61182;-76
2023/12/07 04:27:14;;;;;;;18.80;11.90;;;;;;;-3.57;69.00;100973.41;106040;1253;63726;-77
2023/12/07 04:29:41;;;;;;;20.90;11.70;;;;;;;-3.57;69.05;100971.52;105878;1257;61354;-77
2023/12/07 04:32:08;;;;;;;16.30;10.60;;;;;;;-3.56;69.02;100972.20;106262;1250;61358;-75
2023/12/07 04:34:35;;;;;;;17.80;11.80;;;;;;;-3.55;69.03;100976.14;106168;1256;65873;-76
2023/12/07 04:37:02;;;;;;;19.30;12.30;;;;;;;-3.49;68.88;100977.76;106227;1250;61184;-76
2023/12/07 04:39:29;;;;;;;16.00;11.50;;;;;;;-3.45;68.87;100977.91;106217;1254;62875;-75
2023/12/07 04:41:56;;;;;;;17.60;11.90;;;;;;;-3.43;68.96;100977.54;106071;1254;61318;-76
2023/12/07 04:44:25;;;;;;;16.50;11.00;;;;;;;-3.41;68.87;100978.88;105947;1250;61231;-77
2023/12/07 04:46:52;;;;;;;17.00;11.40;;;;;;;-3.40;68.84;100978.70;106204;1248;64546;-76
2023/12/07 04:49:18;;;;;;;18.30;12.40;;;;;;;-3.40;68.89;100976.80;106277;1250;61362;-77
2023/12/07 04:51:46;;;;;;;22.40;11.20;;;;;;;-3.40;68.90;100980.25;106231;1250;64052;-76
2023/12/07 04:54:14;;;;;;;18.20;11.80;;;;;;;-3.46;69.02;100986.70;106273;1253;61789;-76
2023/12/07 04:56:46;;;;;;;17.90;11.80;;;;;;;-3.48;69.19;100985.51;106132;1250;61297;-76
2023/12/07 04:59:13;;;;;;;17.00;11.90;;;;;;;-3.47;69.24;100982.41;105968;1254;66100;-77
2023/12/07 05:01:40;;;;;;;21.70;12.90;;;;;;;-3.46;69.22;100979.12;106208;1250;61344;-76
2023/12/07 05:04:07;;;;;;;16.40;11.40;;;;;;;-3.44;69.30;100974.64;106418;1254;63999;-76
2023/12/07 05:06:34;;;;;;;18.90;12.20;;;;;;;-3.44;69.43;100971.87;106076;1251;61422;-75
2023/12/07 05:09:01;;;;;;;16.40;11.70;;;;;;;-3.42;69.49;100973.74;106119;1250;61286;-77
2023/12/07 05:11:45;;;;;;;16.50;11.20;;;;;;;-3.42;69.50;100974.42;105821;1253;66170;-75
2023/12/07 05:14:12;;;;;;;17.30;11.60;;;;;;;-3.41;69.57;100971.81;105867;1250;61285;-73
2023/12/07 05:16:40;;;;;;;19.50;13.00;;;;;;;-3.39;69.62;100969.56;106003;1251;63913;-76
2023/12/07 05:19:08;;;;;;;17.50;13.10;;;;;;;-3.37;69.66;100968.67;105823;1250;61327;-74
2023/12/07 05:21:35;;;;;;;19.20;12.30;;;;;;;-3.34;69.71;100967.95;106073;1249;61315;-74
2023/12/07 05:24:02;;;;;;;18.90;13.30;;;;;;;-3.32;69.71;100971.02;106343;1250;64712;-77
2023/12/07 05:26:32;;;;;;;17.90;12.80;;;;;;;-3.31;69.71;100968.60;106109;1254;61278;-76
2023/12/07 05:28:59;;;;;;;19.80;12.60;;;;;;;-3.30;69.80;100970.29;105910;1254;63844;-76
2023/12/07 05:31:26;;;;;;;19.60;12.70;;;;;;;-3.28;69.82;100971.14;105862;1251;61978;-76
2023/12/07 05:33:53;;;;;;;20.80;13.10;;;;;;;-3.25;69.94;100969.38;106053;1254;61195;-76
2023/12/07 05:36:20;;;;;;;22.50;12.50;;;;;;;-3.24;69.91;100969.54;106212;1250;64547;-78
2023/12/07 05:38:47;;;;;;;19.70;13.30;;;;;;;-3.23;69.96;100970.21;106167;1250;61708;-80
2023/12/07 05:41:14;;;;;;;21.00;12.70;;;;;;;-3.22;70.00;100970.02;105910;1250;62646;-75
2023/12/07 05:43:41;;;;;;;19.50;13.20;;;;;;;-3.20;70.14;100966.54;105920;1250;61260;-75
2023/12/07 05:46:09;;;;;;;22.40;13.60;;;;;;;-3.18;70.15;100968.60;106013;1250;61786;-75
2023/12/07 05:48:35;;;;;;;19.60;12.20;;;;;;;-3.17;70.23;100970.48;106372;1250;65904;-76
2023/12/07 05:51:03;;;;;;;20.70;13.80;;;;;;;-3.15;70.25;100972.86;105895;1250;61371;-72
2023/12/07 05:53:32;;;;;;;19.50;12.80;;;;;;;-3.14;70.28;100971.81;105946;1250;63971;-74
2023/12/07 05:55:59;;;;;;;18.40;13.10;;;;;;;-3.13;70.30;100970.08;105895;1250;61337;-74
2023/12/07 05:58:29;;;;;;;20.50;13.80;;;;;;;-3.11;70.37;100966.43;106009;1250;61288;-75
2023/12/07 06:00:57;;;;;;;21.70;13.70;;;;;;;-3.09;70.51;100966.73;106102;1254;65957;-75
2023/12/07 06:03:25;;;;;;;24.20;14.00;;;;;;;-3.07;70.53;100971.05;106002;1250;61282;-75
2023/12/07 06:05:53;;;;;;;19.10;12.80;;;;;;;-3.05;70.65;100972.57;106351;1249;64063;-76
2023/12/07 06:08:20;;;;;;;21.90;14.60;;;;;;;-3.04;70.64;100971.67;106106;1251;61313;-74
2023/12/07 06:10:46;;;;;;;19.40;13.30;;;;;;;-3.02;70.68;100971.80;106131;1250;61215;-76
2023/12/07 06:13:14;;;;;;;19.70;13.40;;;;;;;-3.01;70.69;100969.20;105966;1250;66071;-76
2023/12/07 06:15:40;;;;;;;19.40;13.20;;;;;;;-2.99;70.71;100969.19;106120;1253;61302;-76
2023/12/07 06:18:08;;;;;;;20.30;13.90;;;;;;;-2.98;70.76;100972.29;106200;1253;64012;-75
2023/12/07 06:20:35;;;;;;;20.70;13.80;;;;;;;-2.96;70.88;100968.98;105961;1252;61395;-73
2023/12/07 06:23:02;;;;;;;18.00;12.40;;;;;;;-2.94;70.83;100969.98;105866;1251;61342;-74
2023/12/07 06:25:29;;;;;;;18.60;13.40;;;;;;;-2.93;71.07;100973.59;106252;1254;66061;-75
2023/12/07 06:27:56;;;;;;;16.80;12.40;;;;;;;-2.93;71.16;100972.88;106132;1250;61342;-76
2023/12/07 06:30:24;;;;;;;17.30;12.00;;;;;;;-2.92;71.05;100969.77;106417;1250;63790;-75
2023/12/07 06:32:51;;;;;;;16.40;11.50;;;;;;;-2.89;71.06;100971.98;106180;1254;61273;-76
2023/12/07 06:35:18;;;;;;;15.60;11.20;;;;;;;-2.87;71.14;100979.88;105908;1250;59717;-75
2023/12/07 06:37:44;;;;;;;16.60;11.20;;;;;;;-2.86;71.17;100982.10;106073;1250;64795;-77
2023/12/07 06:40:11;;;;;;;15.60;11.50;;;;;;;-2.85;71.15;100984.67;106026;1250;61288;-75
2023/12/07 06:42:39;;;;;;;16.50;12.30;;;;;;;-2.84;71.19;100981.71;106182;1249;63908;-75
2023/12/07 06:45:10;;;;;;;15.00;12.10;;;;;;;-2.82;71.20;100979.96;106130;1250;61331;-76
2023/12/07 06:53:34;;;;;;;14.90;11.30;;;;;;;-2.71;71.42;100974.81;102716;1291;600979;-74
2023/12/07 06:56:03;;;;;;;15.30;11.50;;;;;;;-2.71;71.45;100983.42;105288;1269;59328;-76
2023/12/07 06:58:30;;;;;;;15.30;11.50;;;;;;;-2.68;71.41;100992.17;104910;1271;59299;-75
2023/12/07 07:00:58;;;;;;;15.60;11.10;;;;;;;-2.66;71.41;100995.08;105254;1262;65795;-75
2023/12/07 07:03:27;;;;;;;16.20;11.30;;;;;;;-2.65;71.42;100994.19;105312;1266;59322;-75
2023/12/07 07:05:55;;;;;;;15.30;11.90;;;;;;;-2.63;71.43;100991.23;105365;1265;63748;-77
2023/12/07 07:08:24;;;;;;;19.20;11.70;;;;;;;-2.59;71.51;100980.66;105282;1264;193720;-76
2023/12/07 07:10:51;;;;;;;17.30;12.10;;;;;;;-2.57;71.50;100979.08;105470;1256;59293;-78
2023/12/07 07:13:20;;;;;;;13.90;11.40;;;;;;;-2.56;71.59;100980.60;105434;1257;62082;-74
2023/12/07 07:23:24;;;;;;;13.60;10.80;;;;;;;-2.44;71.66;100986.10;102891;1292;601272;-74
2023/12/07 07:25:57;;;;;;;13.90;11.00;;;;;;;-2.43;71.67;100983.33;104775;1268;59369;-77
2023/12/07 07:28:25;;;;;;;14.70;10.70;;;;;;;-2.40;71.65;100984.83;104918;1268;59424;-77
2023/12/07 07:30:53;;;;;;;15.90;11.60;;;;;;;-2.35;71.60;100990.27;105770;1259;62589;-78
2023/12/07 07:34:14;;;;;;;16.80;12.20;;;;;;;-2.26;71.74;100989.95;103488;1294;604851;-77
2023/12/07 07:37:16;;;;;;;14.30;11.10;;;;;;;-2.23;71.72;100997.15;106338;1267;59338;-78
2023/12/07 07:40:26;;;;;;;14.90;10.90;;;;;;;-2.16;71.71;101003.57;105474;1269;59187;-77
2023/12/07 07:42:55;;;;;;;13.70;10.80;;;;;;;-2.13;71.77;101007.66;105166;1266;64738;-77
2023/12/07 07:45:24;;;;;;;15.30;11.10;;;;;;;-2.09;71.83;101010.20;104821;1272;59225;-79
2023/12/07 07:47:51;;;;;;;14.60;11.40;;;;;;;-2.07;71.76;101008.75;104796;1267;183546;-78
2023/12/07 07:50:18;;;;;;;13.60;10.10;;;;;;;-2.03;71.75;101010.42;105209;1266;59269;-78
2023/12/07 07:52:45;;;;;;;14.50;11.30;;;;;;;-2.00;71.76;101010.55;104983;1269;60030;-79
2023/12/07 07:55:12;;;;;;;13.90;10.60;;;;;;;-1.98;71.69;101007.23;105389;1263;63328;-77
2023/12/07 07:57:39;;;;;;;13.50;10.80;;;;;;;-1.97;71.75;101007.20;105430;1256;60385;-76
2023/12/07 08:00:09;;;;;;;12.70;10.30;;;;;;;-1.96;71.65;101006.33;105585;1263;72501;-76
2023/12/07 08:02:36;;;;;;;16.80;11.30;;;;;;;-1.95;71.67;101003.70;105525;1262;59627;-77
2023/12/07 08:05:04;;;;;;;14.90;10.80;;;;;;;-1.94;71.69;101001.10;105518;1257;59765;-78
2023/12/07 08:07:31;;;;;;;14.80;11.30;;;;;;;-1.93;71.66;101000.23;105599;1260;66376;-79
2023/12/07 08:09:58;;;;;;;12.80;9.80;;;;;;;-1.91;71.60;101001.42;105384;1262;59995;-79
2023/12/07 08:12:25;;;;;;;15.10;10.70;;;;;;;-1.91;71.66;101001.75;105354;1261;65680;-78
2023/12/07 08:14:53;;;;;;;13.30;11.00;;;;;;;-1.91;71.66;101007.45;105353;1258;59699;-79
2023/12/07 08:17:21;;;;;;;15.70;11.60;;;;;;;-1.90;71.66;101007.61;105394;1263;59541;-79
2023/12/07 08:19:48;;;;;;;14.40;11.40;;;;;;;-1.90;71.70;101008.13;105384;1258;64504;-77
2023/12/07 08:22:17;;;;;;;14.50;10.80;;;;;;;-1.89;71.69;101009.14;105323;1263;60161;-77
2023/12/07 08:24:44;;;;;;;15.10;11.30;;;;;;;-1.86;71.72;101008.39;105368;1261;63693;-78
2023/12/07 08:27:14;;;;;;;15.10;11.00;;;;;;;-1.84;71.73;101009.55;105286;1263;59742;-78
2023/12/07 08:29:41;;;;;;;13.50;10.50;;;;;;;-1.83;71.73;101011.45;105474;1258;59672;-78
2023/12/07 08:32:11;;;;;;;13.70;11.00;;;;;;;-1.83;71.75;101007.13;105387;1263;64294;-78
2023/12/07 08:34:38;;;;;;;14.80;10.90;;;;;;;-1.82;71.82;101007.47;105296;1262;59666;-77
2023/12/07 08:37:05;;;;;;;13.70;10.60;;;;;;;-1.80;71.86;101010.52;105196;1263;63899;-79
2023/12/07 08:39:32;;;;;;;15.70;11.10;;;;;;;-1.76;71.89;101003.71;105500;1263;59602;-78
2023/12/07 08:42:00;;;;;;;13.10;9.70;;;;;;;-1.73;71.93;101004.02;105921;1254;60054;-77
2023/12/07 08:44:28;;;;;;;14.60;10.90;;;;;;;-1.70;71.93;100996.71;105702;1255;66378;-78
2023/12/07 08:46:55;;;;;;;13.90;10.30;;;;;;;-1.69;72.00;100995.31;105556;1258;60408;-77
2023/12/07 08:49:21;;;;;;;13.10;10.60;;;;;;;-1.69;71.99;100987.88;105744;1264;73936;-79
2023/12/07 08:51:48;;;;;;;14.40;10.80;;;;;;;-1.67;72.01;100986.42;105710;1257;59663;-77
2023/12/07 08:54:36;;;;;;;14.60;10.70;;;;;;;-1.64;72.08;100983.98;105670;1257;59727;-78
2023/12/07 08:57:03;;;;;;;14.30;11.30;;;;;;;-1.61;72.15;100978.23;105561;1255;66298;-77
2023/12/07 08:59:30;;;;;;;14.00;10.60;;;;;;;-1.59;72.07;100974.56;105854;1254;59721;-80
2023/12/07 09:01:57;;;;;;;14.90;11.00;;;;;;;-1.59;72.07;100972.13;105722;1258;63978;-78
2023/12/07 09:04:27;;;;;;;15.40;11.40;;;;;;;-1.59;72.08;100973.17;105758;1254;59678;-76
2023/12/07 09:06:54;;;;;;;15.40;10.70;;;;;;;-1.59;72.00;100976.78;105779;1260;59633;-79
2023/12/07 09:09:22;;;;;;;13.60;10.90;;;;;;;-1.58;72.11;100968.67;105710;1254;64787;-79
2023/12/07 09:11:49;;;;;;;14.50;11.00;;;;;;;-1.58;72.13;100963.66;105709;1258;59742;-77
2023/12/07 09:14:17;;;;;;;13.60;10.40;;;;;;;-1.58;72.18;100967.63;105806;1254;65958;-77
2023/12/07 09:16:44;;;;;;;13.10;10.20;;;;;;;-1.59;72.11;100972.32;105738;1259;59625;-77
2023/12/07 09:19:13;;;;;;;13.80;10.60;;;;;;;-1.60;72.27;100974.05;105749;1259;59704;-77
2023/12/07 09:21:40;;;;;;;15.80;11.50;;;;;;;-1.58;72.36;100978.16;105806;1259;66126;-78
2023/12/07 09:24:07;;;;;;;15.50;11.10;;;;;;;-1.59;72.36;100975.59;105674;1260;60092;-77
2023/12/07 09:26:34;;;;;;;14.20;10.70;;;;;;;-1.60;72.39;100974.57;105743;1260;63920;-78
2023/12/07 09:29:01;;;;;;;14.70;11.00;;;;;;;-1.58;72.42;100973.48;105690;1258;59769;-78
2023/12/07 09:31:28;;;;;;;14.00;10.30;;;;;;;-1.57;72.46;100968.11;105587;1260;59768;-77
2023/12/07 09:33:56;;;;;;;15.50;11.50;;;;;;;-1.56;72.48;100963.10;105871;1258;66637;-78
2023/12/07 09:36:37;;;;;;;14.70;10.90;;;;;;;-1.58;72.49;100960.70;105749;1257;60103;-78
2023/12/07 09:39:04;;;;;;;14.30;10.50;;;;;;;-1.58;72.52;100960.02;105668;1260;64286;-79
2023/12/07 09:41:32;;;;;;;14.00;11.30;;;;;;;-1.58;72.57;100957.08;105850;1255;59584;-80
2023/12/07 09:44:00;;;;;;;15.60;11.00;;;;;;;-1.57;72.62;100955.68;105663;1260;59584;-79
2023/12/07 09:46:27;;;;;;;15.30;11.50;;;;;;;-1.57;72.54;100958.44;106029;1257;66034;-78
2023/12/07 09:48:54;;;;;;;14.20;10.90;;;;;;;-1.56;72.66;100959.27;105867;1258;59794;-80
2023/12/07 09:51:21;;;;;;;15.40;11.20;;;;;;;-1.55;72.76;100959.09;105479;1264;73015;-77
2023/12/07 09:58:06;;;;;;;13.20;9.80;;;;;;;-1.55;72.76;100955.98;107216;1256;59692;-75
2023/12/07 10:00:36;;;;;;;13.50;10.70;;;;;;;-1.56;72.81;100952.54;106084;1259;65139;-76
2023/12/07 10:03:07;;;;;;;12.90;10.00;;;;;;;-1.54;72.92;100949.41;108658;1257;59141;-76
2023/12/07 10:05:34;;;;;;;14.50;10.90;;;;;;;-1.51;72.89;100951.94;105888;1259;62618;-78
2023/12/07 10:08:01;;;;;;;15.20;11.40;;;;;;;-1.48;72.93;100958.60;105852;1254;60937;-76
2023/12/07 10:10:29;;;;;;;14.40;11.50;;;;;;;-1.44;72.94;100962.50;105746;1254;59634;-76
2023/12/07 10:12:57;;;;;;;15.80;11.00;;;;;;;-1.40;73.03;100957.08;106105;1256;64412;-76
2023/12/07 10:15:25;;;;;;;15.20;10.50;;;;;;;-1.38;72.97;100948.73;105864;1257;59759;-77
2023/12/07 10:17:53;;;;;;;15.10;11.30;;;;;;;-1.36;72.97;100941.60;106074;1257;65647;-77
2023/12/07 10:20:24;;;;;;;16.90;11.80;;;;;;;-1.34;73.02;100935.17;106049;1256;59656;-75
2023/12/07 10:23:08;;;;;;;15.20;11.90;;;;;;;-1.32;73.01;100932.02;106057;1260;59657;-76
2023/12/07 10:25:40;;;;;;;12.40;8.60;;;;;;;-1.31;73.02;100930.96;106575;1253;63920;-76
2023/12/07 10:28:10;;;;;;;14.00;10.80;;;;;;;-1.30;73.04;100931.64;106036;1257;60237;-77
2023/12/07 10:30:39;;;;;;;15.30;11.60;;;;;;;-1.27;73.14;100930.88;105975;1257;65511;-78
2023/12/07 10:33:09;;;;;;;16.20;11.40;;;;;;;-1.24;73.13;100926.31;105994;1255;59579;-75
2023/12/07 10:35:45;;;;;;;14.80;10.10;;;;;;;-1.22;73.15;100926.78;106838;1254;59736;-78
2023/12/07 10:38:22;;;;;;;14.30;10.70;;;;;;;-1.23;73.11;100916.96;105710;1255;64964;-79
2023/12/07 10:40:51;;;;;;;13.30;10.40;;;;;;;-1.24;73.10;100914.07;105559;1260;59688;-77
2023/12/07 10:43:19;;;;;;;13.50;10.60;;;;;;;-1.25;73.03;100917.17;105627;1259;64523;-78
2023/12/07 10:45:48;;;;;;;14.70;11.20;;;;;;;-1.25;73.09;100914.59;106036;1253;59724;-77
2023/12/07 10:48:16;;;;;;;14.60;11.20;;;;;;;-1.23;73.10;100910.40;105863;1254;60111;-76
2023/12/07 10:50:46;;;;;;;15.50;11.10;;;;;;;-1.22;73.04;100911.23;105534;1255;72649;-78
2023/12/07 10:53:31;;;;;;;15.20;11.20;;;;;;;-1.20;73.16;100913.09;105869;1260;59729;-78
2023/12/07 10:56:01;;;;;;;15.10;11.20;;;;;;;-1.19;73.14;100912.89;105831;1259;63858;-80
2023/12/07 10:58:29;;;;;;;14.10;10.80;;;;;;;-1.18;73.15;100912.86;106192;1259;59644;-79
2023/12/07 11:00:57;;;;;;;15.00;10.30;;;;;;;-1.16;73.24;100911.79;105888;1254;59644;-79
2023/12/07 11:03:25;;;;;;;13.10;10.00;;;;;;;-1.14;73.29;100912.45;107261;1254;66353;-79
2023/12/07 11:05:54;;;;;;;14.50;11.20;;;;;;;-1.13;73.34;100910.69;106164;1254;66364;-78
2023/12/07 11:08:58;;;;;;;13.70;10.30;;;;;;;-1.10;73.39;100904.05;106039;1255;65580;-81
2023/12/07 11:11:33;;;;;;;12.80;10.00;;;;;;;-1.06;73.45;100904.30;106685;1254;63217;-78
2023/12/07 11:14:05;;;;;;;10.30;8.10;;;;;;;-1.01;73.53;100905.39;105974;1255;59568;-76
2023/12/07 11:16:32;;;;;;;11.10;9.00;;;;;;;-0.94;73.59;100904.02;106139;1257;65130;-78
2023/12/07 11:18:59;;;;;;;11.50;9.30;;;;;;;-0.89;73.64;100900.25;105953;1260;59743;-79
2023/12/07 11:21:27;;;;;;;16.30;9.60;;;;;;;-0.83;73.68;100897.71;105905;1259;65015;-81
2023/12/07 11:23:54;;;;;;;13.20;8.90;;;;;;;-0.76;73.65;100897.38;106370;1258;60024;-79
2023/12/07 11:26:25;;;;;;;10.50;7.70;;;;;;;-0.71;73.66;100897.39;106025;1259;59659;-79